sensor_id;sensor_type;location;lat;lon;timestamp;pressure;altitude;pressure_sealevel;temperature;humidity
69911;BME280;57194;50.156;14.518;2022-08-01T00:02:09;98601.16;;;22.39;60.05
69911;BME280;57194;50.156;14.518;2022-08-01T00:04:34;98592.91;;;22.35;60.20
69911;BME280;57194;50.156;14.518;2022-08-01T00:06:59;98602.34;;;22.33;60.61
69911;BME280;57194;50.156;14.518;2022-08-01T00:09:25;98597.91;;;22.28;60.86
69911;BME280;57194;50.156;14.518;2022-08-01T00:11:50;98593.94;;;22.25;61.01
69911;BME280;57194;50.156;14.518;2022-08-01T00:14:15;98595.63;;;22.21;61.47
69911;BME280;57194;50.156;14.518;2022-08-01T00:16:41;98598.09;;;22.18;61.62
69911;BME280;57194;50.156;14.518;2022-08-01T00:19:06;98589.06;;;22.14;62.13
69911;BME280;57194;50.156;14.518;2022-08-01T00:21:32;98587.75;;;22.11;62.03
69911;BME280;57194;50.156;14.518;2022-08-01T00:23:57;98592.63;;;22.09;61.62
69911;BME280;57194;50.156;14.518;2022-08-01T00:26:22;98588.34;;;22.08;61.44
69911;BME280;57194;50.156;14.518;2022-08-01T00:28:48;98580.63;;;22.07;61.68
69911;BME280;57194;50.156;14.518;2022-08-01T00:31:13;98583.09;;;22.03;61.62
69911;BME280;57194;50.156;14.518;2022-08-01T00:33:38;98574.25;;;22.03;61.82
69911;BME280;57194;50.156;14.518;2022-08-01T00:36:04;98580.19;;;22.00;61.77
69911;BME280;57194;50.156;14.518;2022-08-01T00:38:29;98580.47;;;21.98;61.99
69911;BME280;57194;50.156;14.518;2022-08-01T00:40:55;98573.03;;;21.95;61.86
69911;BME280;57194;50.156;14.518;2022-08-01T00:43:20;98581.06;;;21.95;61.56
69911;BME280;57194;50.156;14.518;2022-08-01T00:45:45;98576.00;;;21.93;61.82
69911;BME280;57194;50.156;14.518;2022-08-01T00:48:11;98572.03;;;21.91;61.97
69911;BME280;57194;50.156;14.518;2022-08-01T00:50:37;98572.63;;;21.88;62.40
69911;BME280;57194;50.156;14.518;2022-08-01T00:53:04;98571.91;;;21.82;62.46
69911;BME280;57194;50.156;14.518;2022-08-01T00:55:30;98567.75;;;21.76;62.76
69911;BME280;57194;50.156;14.518;2022-08-01T00:57:56;98570.50;;;21.71;63.26
69911;BME280;57194;50.156;14.518;2022-08-01T01:00:21;98566.03;;;21.67;63.22
69911;BME280;57194;50.156;14.518;2022-08-01T01:02:47;98557.00;;;21.62;63.35
69911;BME280;57194;50.156;14.518;2022-08-01T01:05:13;98560.56;;;21.58;63.59
69911;BME280;57194;50.156;14.518;2022-08-01T01:07:50;98552.31;;;21.54;63.91
69911;BME280;57194;50.156;14.518;2022-08-01T01:10:58;98553.53;;;21.48;63.90
69911;BME280;57194;50.156;14.518;2022-08-01T01:13:35;98551.22;;;21.42;64.07
69911;BME280;57194;50.156;14.518;2022-08-01T01:16:10;98548.31;;;21.38;64.17
69911;BME280;57194;50.156;14.518;2022-08-01T01:18:38;98548.41;;;21.33;64.63
69911;BME280;57194;50.156;14.518;2022-08-01T01:23:47;98559.47;;;21.26;64.80
69911;BME280;57194;50.156;14.518;2022-08-01T01:26:26;98560.06;;;21.23;65.04
69911;BME280;57194;50.156;14.518;2022-08-01T01:29:16;98557.69;;;21.22;65.49
69911;BME280;57194;50.156;14.518;2022-08-01T01:31:53;98554.47;;;21.20;65.29
69911;BME280;57194;50.156;14.518;2022-08-01T01:34:21;98556.34;;;21.19;65.12
69911;BME280;57194;50.156;14.518;2022-08-01T01:36:49;98551.28;;;21.18;65.22
69911;BME280;57194;50.156;14.518;2022-08-01T01:39:16;98553.47;;;21.16;65.20
69911;BME280;57194;50.156;14.518;2022-08-01T01:41:43;98550.28;;;21.14;65.27
69911;BME280;57194;50.156;14.518;2022-08-01T01:44:10;98550.88;;;21.11;65.21
69911;BME280;57194;50.156;14.518;2022-08-01T01:46:36;98546.09;;;21.08;65.26
69911;BME280;57194;50.156;14.518;2022-08-01T01:49:03;98544.00;;;21.05;65.47
69911;BME280;57194;50.156;14.518;2022-08-01T01:51:29;98537.13;;;20.98;65.78
69911;BME280;57194;50.156;14.518;2022-08-01T01:53:57;98529.97;;;20.94;66.23
69911;BME280;57194;50.156;14.518;2022-08-01T01:56:25;98525.78;;;20.88;66.44
69911;BME280;57194;50.156;14.518;2022-08-01T01:58:55;98524.00;;;20.83;67.01
69911;BME280;57194;50.156;14.518;2022-08-01T02:01:23;98523.59;;;20.76;67.49
69911;BME280;57194;50.156;14.518;2022-08-01T02:03:51;98522.06;;;20.70;67.83
69911;BME280;57194;50.156;14.518;2022-08-01T02:06:19;98518.66;;;20.64;68.52
69911;BME280;57194;50.156;14.518;2022-08-01T02:08:46;98514.97;;;20.60;68.73
69911;BME280;57194;50.156;14.518;2022-08-01T02:11:13;98523.84;;;20.56;69.11
69911;BME280;57194;50.156;14.518;2022-08-01T02:13:47;98520.16;;;20.52;69.58
69911;BME280;57194;50.156;14.518;2022-08-01T02:16:15;98516.19;;;20.49;70.07
69911;BME280;57194;50.156;14.518;2022-08-01T02:18:42;98522.63;;;20.48;70.04
69911;BME280;57194;50.156;14.518;2022-08-01T02:21:09;98527.97;;;20.48;70.35
69911;BME280;57194;50.156;14.518;2022-08-01T02:23:38;98522.63;;;20.48;70.55
69911;BME280;57194;50.156;14.518;2022-08-01T02:26:08;98520.75;;;20.49;70.45
69911;BME280;57194;50.156;14.518;2022-08-01T02:28:47;98531.16;;;20.50;70.40
69911;BME280;57194;50.156;14.518;2022-08-01T02:31:17;98531.66;;;20.52;70.62
69911;BME280;57194;50.156;14.518;2022-08-01T02:33:48;98531.38;;;20.54;70.77
69911;BME280;57194;50.156;14.518;2022-08-01T02:36:16;98520.38;;;20.55;70.72
69911;BME280;57194;50.156;14.518;2022-08-01T02:38:43;98527.03;;;20.58;70.87
69911;BME280;57194;50.156;14.518;2022-08-01T02:41:12;98524.88;;;20.60;71.16
69911;BME280;57194;50.156;14.518;2022-08-01T02:43:41;98530.22;;;20.60;71.27
69911;BME280;57194;50.156;14.518;2022-08-01T02:46:12;98529.94;;;20.61;71.85
69911;BME280;57194;50.156;14.518;2022-08-01T02:48:40;98539.03;;;20.60;71.83
69911;BME280;57194;50.156;14.518;2022-08-01T02:51:08;98531.81;;;20.61;72.33
69911;BME280;57194;50.156;14.518;2022-08-01T02:53:36;98535.28;;;20.61;72.59
69911;BME280;57194;50.156;14.518;2022-08-01T02:56:05;98529.13;;;20.61;72.69
69911;BME280;57194;50.156;14.518;2022-08-01T02:58:31;98531.81;;;20.61;72.83
69911;BME280;57194;50.156;14.518;2022-08-01T03:00:58;98528.63;;;20.59;72.97
69911;BME280;57194;50.156;14.518;2022-08-01T03:03:24;98531.31;;;20.59;73.64
69911;BME280;57194;50.156;14.518;2022-08-01T03:05:50;98534.25;;;20.57;73.59
69911;BME280;57194;50.156;14.518;2022-08-01T03:08:16;98523.84;;;20.56;73.84
69911;BME280;57194;50.156;14.518;2022-08-01T03:10:45;98523.34;;;20.54;74.24
69911;BME280;57194;50.156;14.518;2022-08-01T03:13:12;98522.03;;;20.51;74.44
69911;BME280;57194;50.156;14.518;2022-08-01T03:15:39;98534.09;;;20.49;74.88
69911;BME280;57194;50.156;14.518;2022-08-01T03:18:07;98532.00;;;20.46;75.11
69911;BME280;57194;50.156;14.518;2022-08-01T03:20:34;98535.25;;;20.43;75.39
69911;BME280;57194;50.156;14.518;2022-08-01T03:23:06;98544.63;;;20.40;75.96
69911;BME280;57194;50.156;14.518;2022-08-01T03:25:35;98537.16;;;20.37;76.04
69911;BME280;57194;50.156;14.518;2022-08-01T03:28:03;98533.97;;;20.35;76.57
69911;BME280;57194;50.156;14.518;2022-08-01T03:30:30;98537.22;;;20.32;76.72
69911;BME280;57194;50.156;14.518;2022-08-01T03:32:57;98529.47;;;20.30;76.77
69911;BME280;57194;50.156;14.518;2022-08-01T03:35:26;98530.84;;;20.28;76.97
69911;BME280;57194;50.156;14.518;2022-08-01T03:37:56;98535.69;;;20.26;77.32
69911;BME280;57194;50.156;14.518;2022-08-01T03:40:24;98538.94;;;20.23;77.47
69911;BME280;57194;50.156;14.518;2022-08-01T03:42:56;98534.94;;;20.20;77.83
69911;BME280;57194;50.156;14.518;2022-08-01T03:45:31;98538.19;;;20.17;77.80
69911;BME280;57194;50.156;14.518;2022-08-01T03:48:03;98540.63;;;20.14;77.91
69911;BME280;57194;50.156;14.518;2022-08-01T03:50:31;98542.00;;;20.11;78.11
69911;BME280;57194;50.156;14.518;2022-08-01T03:53:00;98534.25;;;20.10;78.14
69911;BME280;57194;50.156;14.518;2022-08-01T03:55:27;98534.56;;;20.08;78.35
69911;BME280;57194;50.156;14.518;2022-08-01T03:57:53;98528.41;;;20.08;78.77
69911;BME280;57194;50.156;14.518;2022-08-01T04:00:19;98525.75;;;20.08;78.89
69911;BME280;57194;50.156;14.518;2022-08-01T04:02:46;98523.59;;;20.10;78.98
69911;BME280;57194;50.156;14.518;2022-08-01T04:05:13;98532.09;;;20.12;79.06
69911;BME280;57194;50.156;14.518;2022-08-01T04:07:39;98536.38;;;20.13;79.13
69911;BME280;57194;50.156;14.518;2022-08-01T04:10:05;98538.19;;;20.17;79.02
69911;BME280;57194;50.156;14.518;2022-08-01T04:12:31;98537.34;;;20.22;78.84
69911;BME280;57194;50.156;14.518;2022-08-01T04:14:57;98545.28;;;20.27;78.74
69911;BME280;57194;50.156;14.518;2022-08-01T04:17:23;98536.13;;;20.33;78.44
69911;BME280;57194;50.156;14.518;2022-08-01T04:19:49;98542.25;;;20.39;78.09
69911;BME280;57194;50.156;14.518;2022-08-01T04:22:15;98540.31;;;20.44;77.90
69911;BME280;57194;50.156;14.518;2022-08-01T04:24:42;98538.94;;;20.47;77.51
69911;BME280;57194;50.156;14.518;2022-08-01T04:27:12;98546.59;;;20.53;77.33
69911;BME280;57194;50.156;14.518;2022-08-01T04:29:39;98541.19;;;20.58;77.18
69911;BME280;57194;50.156;14.518;2022-08-01T04:32:07;98543.78;;;20.63;77.22
69911;BME280;57194;50.156;14.518;2022-08-01T04:34:35;98542.66;;;20.70;77.20
69911;BME280;57194;50.156;14.518;2022-08-01T04:37:03;98547.94;;;20.75;77.02
69911;BME280;57194;50.156;14.518;2022-08-01T04:39:31;98549.41;;;20.81;77.15
69911;BME280;57194;50.156;14.518;2022-08-01T04:41:58;98545.59;;;20.87;77.07
69911;BME280;57194;50.156;14.518;2022-08-01T04:44:25;98544.44;;;20.93;77.11
69911;BME280;57194;50.156;14.518;2022-08-01T04:46:53;98549.41;;;20.99;76.67
69911;BME280;57194;50.156;14.518;2022-08-01T04:49:23;98542.91;;;21.06;76.85
69911;BME280;57194;50.156;14.518;2022-08-01T04:51:51;98535.03;;;21.14;76.37
69911;BME280;57194;50.156;14.518;2022-08-01T04:54:17;98546.69;;;21.23;76.21
69911;BME280;57194;50.156;14.518;2022-08-01T04:56:42;98547.13;;;21.30;75.89
69911;BME280;57194;50.156;14.518;2022-08-01T04:59:07;98545.66;;;21.38;75.32
69911;BME280;57194;50.156;14.518;2022-08-01T05:01:51;98553.31;;;21.45;75.08
69911;BME280;57194;50.156;14.518;2022-08-01T05:04:16;98553.72;;;21.52;74.55
69911;BME280;57194;50.156;14.518;2022-08-01T05:06:42;98546.88;;;21.59;73.84
69911;BME280;57194;50.156;14.518;2022-08-01T05:09:07;98546.50;;;21.66;73.47
69911;BME280;57194;50.156;14.518;2022-08-01T05:11:32;98557.91;;;21.72;73.18
69911;BME280;57194;50.156;14.518;2022-08-01T05:13:57;98545.22;;;21.77;72.58
69911;BME280;57194;50.156;14.518;2022-08-01T05:16:23;98544.84;;;21.84;71.96
69911;BME280;57194;50.156;14.518;2022-08-01T05:18:48;98552.28;;;21.87;71.63
69911;BME280;57194;50.156;14.518;2022-08-01T05:21:13;98549.81;;;21.90;71.35
69911;BME280;57194;50.156;14.518;2022-08-01T05:23:39;98550.31;;;21.92;71.32
69911;BME280;57194;50.156;14.518;2022-08-01T05:26:04;98560.94;;;21.97;71.21
69911;BME280;57194;50.156;14.518;2022-08-01T05:28:30;98553.94;;;22.02;71.07
69911;BME280;57194;50.156;14.518;2022-08-01T05:30:55;98548.47;;;22.07;70.80
69911;BME280;57194;50.156;14.518;2022-08-01T05:33:21;98557.50;;;22.11;70.68
69911;BME280;57194;50.156;14.518;2022-08-01T05:35:47;98552.66;;;22.13;69.99
69911;BME280;57194;50.156;14.518;2022-08-01T05:38:12;98553.94;;;22.15;70.00
69911;BME280;57194;50.156;14.518;2022-08-01T05:40:37;98556.31;;;22.17;70.07
69911;BME280;57194;50.156;14.518;2022-08-01T05:43:03;98545.81;;;22.20;69.68
69911;BME280;57194;50.156;14.518;2022-08-01T05:45:28;98547.09;;;22.23;69.80
69911;BME280;57194;50.156;14.518;2022-08-01T05:47:53;98548.09;;;22.27;69.41
69911;BME280;57194;50.156;14.518;2022-08-01T05:50:19;98549.84;;;22.32;69.40
69911;BME280;57194;50.156;14.518;2022-08-01T05:52:44;98552.72;;;22.35;69.14
69911;BME280;57194;50.156;14.518;2022-08-01T05:55:09;98556.38;;;22.39;68.87
69911;BME280;57194;50.156;14.518;2022-08-01T05:57:35;98553.31;;;22.46;68.72
69911;BME280;57194;50.156;14.518;2022-08-01T06:00:00;98550.81;;;22.49;68.55
69911;BME280;57194;50.156;14.518;2022-08-01T06:02:25;98557.97;;;22.54;68.23
69911;BME280;57194;50.156;14.518;2022-08-01T06:04:51;98553.28;;;22.59;68.22
69911;BME280;57194;50.156;14.518;2022-08-01T06:07:16;98550.50;;;22.65;68.04
69911;BME280;57194;50.156;14.518;2022-08-01T06:09:41;98553.69;;;22.67;67.80
69911;BME280;57194;50.156;14.518;2022-08-01T06:12:07;98555.75;;;22.70;67.44
69911;BME280;57194;50.156;14.518;2022-08-01T06:14:33;98555.66;;;22.75;67.28
69911;BME280;57194;50.156;14.518;2022-08-01T06:16:58;98559.34;;;22.79;66.86
69911;BME280;57194;50.156;14.518;2022-08-01T06:19:23;98562.22;;;22.82;66.70
69911;BME280;57194;50.156;14.518;2022-08-01T06:21:49;98563.41;;;22.90;66.31
69911;BME280;57194;50.156;14.518;2022-08-01T06:24:14;98576.59;;;23.00;65.91
69911;BME280;57194;50.156;14.518;2022-08-01T06:26:39;98574.25;;;23.07;65.70
69911;BME280;57194;50.156;14.518;2022-08-01T06:29:05;98573.94;;;23.09;64.88
69911;BME280;57194;50.156;14.518;2022-08-01T06:31:30;98571.56;;;23.07;64.45
69911;BME280;57194;50.156;14.518;2022-08-01T06:33:56;98582.59;;;23.06;63.84
69911;BME280;57194;50.156;14.518;2022-08-01T06:36:22;98584.97;;;23.07;63.64
69911;BME280;57194;50.156;14.518;2022-08-01T06:38:47;98584.06;;;23.12;63.37
69911;BME280;57194;50.156;14.518;2022-08-01T06:41:13;98579.88;;;23.19;63.47
69911;BME280;57194;50.156;14.518;2022-08-01T06:43:38;98576.66;;;23.31;63.01
69911;BME280;57194;50.156;14.518;2022-08-01T06:46:04;98575.19;;;23.47;62.50
69911;BME280;57194;50.156;14.518;2022-08-01T06:48:29;98583.09;;;23.66;61.82
69911;BME280;57194;50.156;14.518;2022-08-01T06:50:54;98581.56;;;23.82;60.56
69911;BME280;57194;50.156;14.518;2022-08-01T06:53:37;98583.56;;;23.99;59.86
69911;BME280;57194;50.156;14.518;2022-08-01T06:56:03;98582.66;;;24.12;59.63
69911;BME280;57194;50.156;14.518;2022-08-01T06:58:29;98591.22;;;24.14;59.18
69911;BME280;57194;50.156;14.518;2022-08-01T07:00:54;98592.28;;;24.05;59.02
69911;BME280;57194;50.156;14.518;2022-08-01T07:03:19;98579.81;;;24.09;59.13
69911;BME280;57194;50.156;14.518;2022-08-01T07:05:45;98593.56;;;24.07;58.52
69911;BME280;57194;50.156;14.518;2022-08-01T07:08:10;98589.09;;;24.03;59.05
69911;BME280;57194;50.156;14.518;2022-08-01T07:10:35;98587.03;;;24.00;58.91
69911;BME280;57194;50.156;14.518;2022-08-01T07:13:01;98590.03;;;23.98;58.93
69911;BME280;57194;50.156;14.518;2022-08-01T07:15:27;98586.06;;;23.96;59.00
69911;BME280;57194;50.156;14.518;2022-08-01T07:17:52;98599.16;;;23.88;59.10
69911;BME280;57194;50.156;14.518;2022-08-01T07:20:18;98605.25;;;23.80;59.13
69911;BME280;57194;50.156;14.518;2022-08-01T07:22:44;98597.06;;;23.77;59.00
69911;BME280;57194;50.156;14.518;2022-08-01T07:25:09;98606.03;;;23.72;59.12
69911;BME280;57194;50.156;14.518;2022-08-01T07:27:35;98608.22;;;23.70;58.90
69911;BME280;57194;50.156;14.518;2022-08-01T07:30:01;98608.53;;;23.69;58.92
69911;BME280;57194;50.156;14.518;2022-08-01T07:32:26;98597.19;;;23.72;59.24
69911;BME280;57194;50.156;14.518;2022-08-01T07:34:52;98596.72;;;23.78;58.26
69911;BME280;57194;50.156;14.518;2022-08-01T07:37:17;98605.88;;;23.77;57.75
69911;BME280;57194;50.156;14.518;2022-08-01T07:39:42;98610.00;;;23.75;57.50
69911;BME280;57194;50.156;14.518;2022-08-01T07:42:08;98607.47;;;23.78;57.56
69911;BME280;57194;50.156;14.518;2022-08-01T07:44:34;98615.09;;;23.85;57.59
69911;BME280;57194;50.156;14.518;2022-08-01T07:46:59;98606.53;;;23.83;57.47
69911;BME280;57194;50.156;14.518;2022-08-01T07:49:24;98615.69;;;23.82;57.51
69911;BME280;57194;50.156;14.518;2022-08-01T07:51:50;98615.22;;;23.80;57.56
69911;BME280;57194;50.156;14.518;2022-08-01T07:54:15;98628.00;;;23.74;57.84
69911;BME280;57194;50.156;14.518;2022-08-01T07:56:41;98618.97;;;23.70;58.25
69911;BME280;57194;50.156;14.518;2022-08-01T07:59:06;98621.66;;;23.70;58.84
69911;BME280;57194;50.156;14.518;2022-08-01T08:01:31;98622.44;;;23.71;58.83
69911;BME280;57194;50.156;14.518;2022-08-01T08:03:57;98630.00;;;23.69;58.73
69911;BME280;57194;50.156;14.518;2022-08-01T08:06:22;98622.69;;;23.61;58.73
69911;BME280;57194;50.156;14.518;2022-08-01T08:08:47;98627.09;;;23.56;59.07
69911;BME280;57194;50.156;14.518;2022-08-01T08:11:13;98631.97;;;23.54;59.05
69911;BME280;57194;50.156;14.518;2022-08-01T08:13:38;98626.88;;;23.53;59.38
69911;BME280;57194;50.156;14.518;2022-08-01T08:16:04;98626.06;;;23.52;59.49
69911;BME280;57194;50.156;14.518;2022-08-01T08:18:29;98625.50;;;23.55;59.28
69911;BME280;57194;50.156;14.518;2022-08-01T08:20:54;98624.66;;;23.69;59.12
69911;BME280;57194;50.156;14.518;2022-08-01T08:23:20;98626.00;;;23.88;58.65
69911;BME280;57194;50.156;14.518;2022-08-01T08:26:04;98627.03;;;24.01;58.26
69911;BME280;57194;50.156;14.518;2022-08-01T08:28:29;98626.41;;;24.04;58.08
69911;BME280;57194;50.156;14.518;2022-08-01T08:30:54;98628.91;;;24.01;57.79
69911;BME280;57194;50.156;14.518;2022-08-01T08:33:20;98629.66;;;23.92;58.03
69911;BME280;57194;50.156;14.518;2022-08-01T08:35:45;98631.88;;;23.90;58.28
69911;BME280;57194;50.156;14.518;2022-08-01T08:38:11;98633.94;;;23.93;57.79
69911;BME280;57194;50.156;14.518;2022-08-01T08:40:36;98635.09;;;24.01;58.20
69911;BME280;57194;50.156;14.518;2022-08-01T08:43:04;98631.69;;;24.18;57.87
69911;BME280;57194;50.156;14.518;2022-08-01T08:45:31;98634.47;;;24.27;56.91
69911;BME280;57194;50.156;14.518;2022-08-01T08:47:56;98644.59;;;24.30;56.99
69911;BME280;57194;50.156;14.518;2022-08-01T08:50:23;98641.78;;;24.35;56.53
69911;BME280;57194;50.156;14.518;2022-08-01T08:52:50;98654.41;;;24.34;56.15
69911;BME280;57194;50.156;14.518;2022-08-01T08:55:17;98641.59;;;24.31;56.30
69911;BME280;57194;50.156;14.518;2022-08-01T08:57:44;98645.06;;;24.32;55.83
69911;BME280;57194;50.156;14.518;2022-08-01T09:00:11;98641.00;;;24.43;55.63
69911;BME280;57194;50.156;14.518;2022-08-01T09:02:45;98638.97;;;24.57;55.38
69911;BME280;57194;50.156;14.518;2022-08-01T09:05:12;98645.50;;;24.65;55.32
69911;BME280;57194;50.156;14.518;2022-08-01T09:07:38;98645.84;;;24.80;55.10
69911;BME280;57194;50.156;14.518;2022-08-01T09:10:05;98645.53;;;24.82;54.46
69911;BME280;57194;50.156;14.518;2022-08-01T09:12:30;98653.75;;;24.77;55.10
69911;BME280;57194;50.156;14.518;2022-08-01T09:14:56;98658.00;;;24.69;55.37
69911;BME280;57194;50.156;14.518;2022-08-01T09:17:22;98650.72;;;24.70;55.40
69911;BME280;57194;50.156;14.518;2022-08-01T09:19:53;98654.56;;;24.77;55.12
69911;BME280;57194;50.156;14.518;2022-08-01T09:22:21;98641.13;;;24.86;55.45
69911;BME280;57194;50.156;14.518;2022-08-01T09:25:05;98653.47;;;24.87;55.12
69911;BME280;57194;50.156;14.518;2022-08-01T09:27:32;98649.38;;;24.89;55.07
69911;BME280;57194;50.156;14.518;2022-08-01T09:30:09;98644.81;;;24.99;54.76
69911;BME280;57194;50.156;14.518;2022-08-01T09:32:34;98642.16;;;25.07;54.94
69911;BME280;57194;50.156;14.518;2022-08-01T09:35:27;98645.97;;;25.24;54.29
69911;BME280;57194;50.156;14.518;2022-08-01T09:38:11;98649.75;;;25.40;54.09
69911;BME280;57194;50.156;14.518;2022-08-01T09:40:56;98646.91;;;25.45;53.87
69911;BME280;57194;50.156;14.518;2022-08-01T09:43:25;98641.19;;;25.46;54.02
69911;BME280;57194;50.156;14.518;2022-08-01T09:45:51;98652.44;;;25.57;53.67
69911;BME280;57194;50.156;14.518;2022-08-01T09:48:18;98646.28;;;25.74;53.61
69911;BME280;57194;50.156;14.518;2022-08-01T09:50:46;98651.97;;;25.90;52.92
69911;BME280;57194;50.156;14.518;2022-08-01T09:53:12;98645.25;;;26.04;52.83
69911;BME280;57194;50.156;14.518;2022-08-01T09:55:39;98644.88;;;26.23;51.89
69911;BME280;57194;50.156;14.518;2022-08-01T09:58:04;98639.47;;;26.23;52.11
69911;BME280;57194;50.156;14.518;2022-08-01T10:00:32;98644.28;;;26.09;52.31
69911;BME280;57194;50.156;14.518;2022-08-01T10:02:58;98640.31;;;26.06;52.49
69911;BME280;57194;50.156;14.518;2022-08-01T10:05:34;98645.06;;;26.09;52.27
69911;BME280;57194;50.156;14.518;2022-08-01T10:08:03;98640.50;;;26.01;52.71
69911;BME280;57194;50.156;14.518;2022-08-01T10:10:30;98644.81;;;25.94;52.41
69911;BME280;57194;50.156;14.518;2022-08-01T10:12:58;98651.81;;;25.77;52.92
69911;BME280;57194;50.156;14.518;2022-08-01T10:15:25;98649.78;;;25.66;53.85
69911;BME280;57194;50.156;14.518;2022-08-01T10:17:55;98645.94;;;25.49;54.16
69911;BME280;57194;50.156;14.518;2022-08-01T10:20:27;98641.97;;;25.38;54.65
69911;BME280;57194;50.156;14.518;2022-08-01T10:23:01;98655.78;;;25.19;55.30
69911;BME280;57194;50.156;14.518;2022-08-01T10:25:28;98654.03;;;25.06;56.03
69911;BME280;57194;50.156;14.518;2022-08-01T10:27:54;98651.63;;;24.96;55.95
69911;BME280;57194;50.156;14.518;2022-08-01T10:30:22;98647.31;;;24.95;56.39
69911;BME280;57194;50.156;14.518;2022-08-01T10:32:48;98659.19;;;24.94;55.88
69911;BME280;57194;50.156;14.518;2022-08-01T10:35:14;98652.84;;;24.90;56.22
69911;BME280;57194;50.156;14.518;2022-08-01T10:37:45;98647.63;;;24.94;55.63
69911;BME280;57194;50.156;14.518;2022-08-01T10:40:15;98662.25;;;25.01;55.12
69911;BME280;57194;50.156;14.518;2022-08-01T10:42:42;98648.16;;;25.04;55.50
69911;BME280;57194;50.156;14.518;2022-08-01T10:45:14;98645.47;;;25.13;55.28
69911;BME280;57194;50.156;14.518;2022-08-01T10:50:44;98651.00;;;25.42;54.68
69911;BME280;57194;50.156;14.518;2022-08-01T10:53:20;98637.06;;;25.40;55.21
69911;BME280;57194;50.156;14.518;2022-08-01T10:56:00;98644.53;;;25.35;55.66
69911;BME280;57194;50.156;14.518;2022-08-01T10:58:31;98643.09;;;25.29;55.74
69911;BME280;57194;50.156;14.518;2022-08-01T11:01:29;98649.75;;;25.23;55.74
69911;BME280;57194;50.156;14.518;2022-08-01T11:04:04;98657.50;;;25.07;56.21
69911;BME280;57194;50.156;14.518;2022-08-01T11:06:42;98650.06;;;25.04;55.97
69911;BME280;57194;50.156;14.518;2022-08-01T11:12:06;98653.81;;;24.94;56.59
69911;BME280;57194;50.156;14.518;2022-08-01T11:14:43;98646.25;;;24.96;56.36
69911;BME280;57194;50.156;14.518;2022-08-01T11:17:43;98652.13;;;25.07;56.22
69911;BME280;57194;50.156;14.518;2022-08-01T11:25:27;98651.25;;;24.89;56.56
69911;BME280;57194;50.156;14.518;2022-08-01T11:30:39;98639.66;;;24.71;56.98
69911;BME280;57194;50.156;14.518;2022-08-01T11:33:05;98649.50;;;24.76;57.17
69911;BME280;57194;50.156;14.518;2022-08-01T11:35:31;98645.38;;;24.78;57.17
69911;BME280;57194;50.156;14.518;2022-08-01T11:38:23;98638.59;;;24.81;57.22
69911;BME280;57194;50.156;14.518;2022-08-01T11:47:05;98638.91;;;24.88;56.79
69911;BME280;57194;50.156;14.518;2022-08-01T11:52:10;98666.91;;;24.87;56.65
69911;BME280;57194;50.156;14.518;2022-08-01T11:57:05;98656.13;;;24.78;56.85
69911;BME280;57194;50.156;14.518;2022-08-01T11:59:40;98643.81;;;24.86;56.73
69911;BME280;57194;50.156;14.518;2022-08-01T12:02:23;98632.28;;;24.94;56.75
69911;BME280;57194;50.156;14.518;2022-08-01T12:04:54;98654.97;;;25.10;56.08
69911;BME280;57194;50.156;14.518;2022-08-01T12:07:20;98661.00;;;25.16;55.94
69911;BME280;57194;50.156;14.518;2022-08-01T12:09:46;98646.28;;;25.13;56.30
69911;BME280;57194;50.156;14.518;2022-08-01T12:12:15;98647.84;;;25.14;56.47
69911;BME280;57194;50.156;14.518;2022-08-01T12:14:42;98657.34;;;25.12;56.68
69911;BME280;57194;50.156;14.518;2022-08-01T12:17:07;98662.09;;;25.15;56.93
69911;BME280;57194;50.156;14.518;2022-08-01T12:19:33;98658.94;;;25.04;57.00
69911;BME280;57194;50.156;14.518;2022-08-01T12:22:05;98666.16;;;24.95;56.97
69911;BME280;57194;50.156;14.518;2022-08-01T12:24:32;98671.41;;;25.00;57.62
69911;BME280;57194;50.156;14.518;2022-08-01T12:26:58;98680.00;;;25.11;57.66
69911;BME280;57194;50.156;14.518;2022-08-01T12:31:58;98665.72;;;25.02;58.31
69911;BME280;57194;50.156;14.518;2022-08-01T12:34:25;98671.25;;;24.97;58.51
69911;BME280;57194;50.156;14.518;2022-08-01T12:36:54;98666.66;;;24.97;58.50
69911;BME280;57194;50.156;14.518;2022-08-01T12:39:20;98664.56;;;24.94;58.80
69911;BME280;57194;50.156;14.518;2022-08-01T12:41:45;98672.63;;;24.94;58.65
69911;BME280;57194;50.156;14.518;2022-08-01T12:44:13;98667.56;;;24.93;59.08
69911;BME280;57194;50.156;14.518;2022-08-01T12:46:42;98658.41;;;24.94;58.67
69911;BME280;57194;50.156;14.518;2022-08-01T12:49:08;98659.66;;;24.87;58.22
69911;BME280;57194;50.156;14.518;2022-08-01T12:51:33;98666.91;;;24.87;57.76
69911;BME280;57194;50.156;14.518;2022-08-01T12:53:59;98656.66;;;24.89;57.65
69911;BME280;57194;50.156;14.518;2022-08-01T12:56:34;98653.00;;;24.94;57.12
69911;BME280;57194;50.156;14.518;2022-08-01T12:58:59;98653.38;;;25.01;57.25
69911;BME280;57194;50.156;14.518;2022-08-01T13:01:26;98649.75;;;25.14;56.49
69911;BME280;57194;50.156;14.518;2022-08-01T13:04:02;98647.38;;;25.21;56.39
69911;BME280;57194;50.156;14.518;2022-08-01T13:06:31;98645.31;;;25.27;56.07
69911;BME280;57194;50.156;14.518;2022-08-01T13:09:08;98641.34;;;25.33;56.19
69911;BME280;57194;50.156;14.518;2022-08-01T13:11:34;98642.13;;;25.33;56.08
69911;BME280;57194;50.156;14.518;2022-08-01T13:13:59;98646.09;;;25.36;56.14
69911;BME280;57194;50.156;14.518;2022-08-01T13:16:25;98636.44;;;25.35;56.20
69911;BME280;57194;50.156;14.518;2022-08-01T13:18:53;98635.34;;;25.36;56.12
69911;BME280;57194;50.156;14.518;2022-08-01T13:21:20;98625.19;;;25.33;55.62
69911;BME280;57194;50.156;14.518;2022-08-01T13:24:06;98621.56;;;25.29;55.49
69911;BME280;57194;50.156;14.518;2022-08-01T13:29:10;98626.78;;;25.34;54.95